sensor_id;sensor_type;location;lat;lon;timestamp;P1;durP1;ratioP1;P2;durP2;ratioP2
4885;SDS011;2457;51.788;6.136;2023-02-18T00:02:11;30.03;;;12.47;;
4885;SDS011;2457;51.788;6.136;2023-02-18T00:04:38;21.03;;;11.60;;
4885;SDS011;2457;51.788;6.136;2023-02-18T00:07:05;27.13;;;14.87;;
4885;SDS011;2457;51.788;6.136;2023-02-18T00:09:33;20.30;;;11.10;;
4885;SDS011;2457;51.788;6.136;2023-02-18T00:12:00;19.50;;;11.20;;
4885;SDS011;2457;51.788;6.136;2023-02-18T00:14:27;22.13;;;12.20;;
4885;SDS011;2457;51.788;6.136;2023-02-18T00:16:54;24.40;;;12.43;;
4885;SDS011;2457;51.788;6.136;2023-02-18T00:19:22;22.70;;;12.70;;
4885;SDS011;2457;51.788;6.136;2023-02-18T00:21:49;26.87;;;13.23;;
4885;SDS011;2457;51.788;6.136;2023-02-18T00:24:16;27.07;;;13.00;;
4885;SDS011;2457;51.788;6.136;2023-02-18T00:26:44;26.47;;;14.07;;
4885;SDS011;2457;51.788;6.136;2023-02-18T00:29:11;25.13;;;12.63;;
4885;SDS011;2457;51.788;6.136;2023-02-18T00:31:38;22.90;;;12.60;;
4885;SDS011;2457;51.788;6.136;2023-02-18T00:34:06;24.10;;;12.27;;
4885;SDS011;2457;51.788;6.136;2023-02-18T00:36:34;25.23;;;12.63;;
4885;SDS011;2457;51.788;6.136;2023-02-18T00:39:03;30.10;;;13.60;;
4885;SDS011;2457;51.788;6.136;2023-02-18T00:41:30;21.57;;;12.83;;
4885;SDS011;2457;51.788;6.136;2023-02-18T00:43:58;23.10;;;12.70;;
4885;SDS011;2457;51.788;6.136;2023-02-18T00:46:26;23.20;;;11.80;;
4885;SDS011;2457;51.788;6.136;2023-02-18T00:48:53;31.03;;;13.03;;
4885;SDS011;2457;51.788;6.136;2023-02-18T00:51:21;23.40;;;11.57;;
4885;SDS011;2457;51.788;6.136;2023-02-18T00:53:48;25.23;;;12.80;;
4885;SDS011;2457;51.788;6.136;2023-02-18T00:56:15;24.33;;;12.97;;
4885;SDS011;2457;51.788;6.136;2023-02-18T00:58:43;25.57;;;12.33;;
4885;SDS011;2457;51.788;6.136;2023-02-18T01:01:10;26.87;;;12.77;;
4885;SDS011;2457;51.788;6.136;2023-02-18T01:03:39;23.30;;;11.63;;
4885;SDS011;2457;51.788;6.136;2023-02-18T01:06:07;20.43;;;11.90;;
4885;SDS011;2457;51.788;6.136;2023-02-18T01:08:34;19.43;;;11.40;;
4885;SDS011;2457;51.788;6.136;2023-02-18T01:11:02;31.53;;;12.60;;
4885;SDS011;2457;51.788;6.136;2023-02-18T01:13:30;21.83;;;12.07;;
4885;SDS011;2457;51.788;6.136;2023-02-18T01:15:57;27.03;;;13.07;;
4885;SDS011;2457;51.788;6.136;2023-02-18T01:18:25;23.43;;;11.70;;
4885;SDS011;2457;51.788;6.136;2023-02-18T01:20:53;29.10;;;12.60;;
4885;SDS011;2457;51.788;6.136;2023-02-18T01:23:20;22.27;;;11.47;;
4885;SDS011;2457;51.788;6.136;2023-02-18T01:25:48;23.20;;;13.27;;
4885;SDS011;2457;51.788;6.136;2023-02-18T01:28:15;25.83;;;11.67;;
4885;SDS011;2457;51.788;6.136;2023-02-18T01:30:44;24.40;;;10.63;;
4885;SDS011;2457;51.788;6.136;2023-02-18T01:33:11;22.13;;;12.30;;
4885;SDS011;2457;51.788;6.136;2023-02-18T01:35:39;22.93;;;12.13;;
4885;SDS011;2457;51.788;6.136;2023-02-18T01:38:06;23.13;;;11.20;;
4885;SDS011;2457;51.788;6.136;2023-02-18T01:40:34;24.07;;;12.53;;
4885;SDS011;2457;51.788;6.136;2023-02-18T01:43:01;24.23;;;12.30;;
4885;SDS011;2457;51.788;6.136;2023-02-18T01:48:05;22.40;;;12.83;;
4885;SDS011;2457;51.788;6.136;2023-02-18T01:50:33;23.40;;;12.43;;
4885;SDS011;2457;51.788;6.136;2023-02-18T01:53:01;21.73;;;12.53;;
4885;SDS011;2457;51.788;6.136;2023-02-18T01:55:29;23.20;;;13.00;;
4885;SDS011;2457;51.788;6.136;2023-02-18T01:57:56;25.40;;;13.90;;
4885;SDS011;2457;51.788;6.136;2023-02-18T02:00:23;26.13;;;14.13;;
4885;SDS011;2457;51.788;6.136;2023-02-18T02:02:51;25.43;;;14.37;;
4885;SDS011;2457;51.788;6.136;2023-02-18T02:05:19;23.70;;;12.70;;
4885;SDS011;2457;51.788;6.136;2023-02-18T02:07:51;28.27;;;14.50;;
4885;SDS011;2457;51.788;6.136;2023-02-18T02:10:15;23.40;;;13.97;;
4885;SDS011;2457;51.788;6.136;2023-02-18T02:12:53;27.63;;;13.77;;
4885;SDS011;2457;51.788;6.136;2023-02-18T02:15:18;26.07;;;13.83;;
4885;SDS011;2457;51.788;6.136;2023-02-18T02:28:40;25.53;;;15.17;;
4885;SDS011;2457;51.788;6.136;2023-02-18T02:33:50;23.23;;;14.10;;
4885;SDS011;2457;51.788;6.136;2023-02-18T02:36:24;24.33;;;14.00;;
4885;SDS011;2457;51.788;6.136;2023-02-18T02:38:57;26.47;;;14.80;;
4885;SDS011;2457;51.788;6.136;2023-02-18T02:44:18;22.47;;;12.90;;
4885;SDS011;2457;51.788;6.136;2023-02-18T02:46:39;18.97;;;11.00;;
4885;SDS011;2457;51.788;6.136;2023-02-18T02:54:33;24.40;;;11.60;;
4885;SDS011;2457;51.788;6.136;2023-02-18T02:57:05;17.13;;;10.53;;
4885;SDS011;2457;51.788;6.136;2023-02-18T02:59:32;19.73;;;11.10;;
4885;SDS011;2457;51.788;6.136;2023-02-18T03:12:53;17.57;;;9.73;;
4885;SDS011;2457;51.788;6.136;2023-02-18T03:15:26;19.10;;;9.57;;
4885;SDS011;2457;51.788;6.136;2023-02-18T03:18:03;16.10;;;8.97;;
4885;SDS011;2457;51.788;6.136;2023-02-18T03:20:33;18.97;;;10.50;;
4885;SDS011;2457;51.788;6.136;2023-02-18T03:23:02;14.80;;;7.80;;
4885;SDS011;2457;51.788;6.136;2023-02-18T03:25:30;15.90;;;8.07;;
4885;SDS011;2457;51.788;6.136;2023-02-18T03:27:58;16.47;;;8.20;;
4885;SDS011;2457;51.788;6.136;2023-02-18T03:30:31;15.00;;;9.00;;
4885;SDS011;2457;51.788;6.136;2023-02-18T03:32:59;16.57;;;7.73;;
4885;SDS011;2457;51.788;6.136;2023-02-18T03:35:27;16.30;;;7.73;;
4885;SDS011;2457;51.788;6.136;2023-02-18T03:38:02;13.83;;;8.10;;
4885;SDS011;2457;51.788;6.136;2023-02-18T03:40:29;13.23;;;7.30;;
4885;SDS011;2457;51.788;6.136;2023-02-18T03:42:57;12.00;;;7.10;;
4885;SDS011;2457;51.788;6.136;2023-02-18T03:45:25;11.10;;;6.00;;
4885;SDS011;2457;51.788;6.136;2023-02-18T03:47:53;12.03;;;6.07;;
4885;SDS011;2457;51.788;6.136;2023-02-18T03:50:20;11.60;;;6.37;;
4885;SDS011;2457;51.788;6.136;2023-02-18T03:52:47;9.53;;;5.20;;
4885;SDS011;2457;51.788;6.136;2023-02-18T03:55:16;11.67;;;6.10;;
4885;SDS011;2457;51.788;6.136;2023-02-18T03:57:43;9.53;;;5.20;;
4885;SDS011;2457;51.788;6.136;2023-02-18T04:00:10;10.90;;;5.77;;
4885;SDS011;2457;51.788;6.136;2023-02-18T04:02:37;10.27;;;5.20;;
4885;SDS011;2457;51.788;6.136;2023-02-18T04:05:05;10.77;;;5.87;;
4885;SDS011;2457;51.788;6.136;2023-02-18T04:07:33;8.00;;;4.37;;
4885;SDS011;2457;51.788;6.136;2023-02-18T04:10:00;9.27;;;5.03;;
4885;SDS011;2457;51.788;6.136;2023-02-18T04:12:27;8.27;;;4.57;;
4885;SDS011;2457;51.788;6.136;2023-02-18T04:14:55;9.97;;;4.80;;
4885;SDS011;2457;51.788;6.136;2023-02-18T04:17:22;7.90;;;4.23;;
4885;SDS011;2457;51.788;6.136;2023-02-18T04:19:49;6.97;;;4.13;;
4885;SDS011;2457;51.788;6.136;2023-02-18T04:22:16;7.53;;;4.50;;
4885;SDS011;2457;51.788;6.136;2023-02-18T04:24:43;7.87;;;3.87;;
4885;SDS011;2457;51.788;6.136;2023-02-18T04:27:11;6.67;;;3.07;;
4885;SDS011;2457;51.788;6.136;2023-02-18T04:29:38;5.63;;;2.83;;
4885;SDS011;2457;51.788;6.136;2023-02-18T04:32:05;7.30;;;3.30;;
4885;SDS011;2457;51.788;6.136;2023-02-18T04:34:33;6.30;;;3.10;;
4885;SDS011;2457;51.788;6.136;2023-02-18T04:37:00;6.93;;;3.00;;
4885;SDS011;2457;51.788;6.136;2023-02-18T04:39:27;5.20;;;3.00;;
4885;SDS011;2457;51.788;6.136;2023-02-18T04:41:54;4.83;;;2.67;;
4885;SDS011;2457;51.788;6.136;2023-02-18T04:44:22;5.20;;;2.80;;
4885;SDS011;2457;51.788;6.136;2023-02-18T04:46:49;6.73;;;2.47;;
4885;SDS011;2457;51.788;6.136;2023-02-18T04:49:16;4.57;;;2.33;;
4885;SDS011;2457;51.788;6.136;2023-02-18T04:51:43;5.10;;;2.30;;
4885;SDS011;2457;51.788;6.136;2023-02-18T04:54:10;4.70;;;2.33;;
4885;SDS011;2457;51.788;6.136;2023-02-18T04:56:38;4.80;;;2.33;;
4885;SDS011;2457;51.788;6.136;2023-02-18T04:59:05;5.37;;;2.70;;
4885;SDS011;2457;51.788;6.136;2023-02-18T05:01:32;4.63;;;2.20;;
4885;SDS011;2457;51.788;6.136;2023-02-18T05:04:00;4.80;;;2.10;;
4885;SDS011;2457;51.788;6.136;2023-02-18T05:06:27;4.97;;;2.30;;
4885;SDS011;2457;51.788;6.136;2023-02-18T05:08:54;5.17;;;2.40;;
4885;SDS011;2457;51.788;6.136;2023-02-18T05:11:21;4.50;;;2.00;;
4885;SDS011;2457;51.788;6.136;2023-02-18T05:13:49;5.30;;;2.40;;
4885;SDS011;2457;51.788;6.136;2023-02-18T05:16:16;4.67;;;1.97;;
4885;SDS011;2457;51.788;6.136;2023-02-18T05:18:43;4.63;;;2.13;;
4885;SDS011;2457;51.788;6.136;2023-02-18T05:21:10;4.60;;;1.90;;
4885;SDS011;2457;51.788;6.136;2023-02-18T05:23:38;4.87;;;2.17;;
4885;SDS011;2457;51.788;6.136;2023-02-18T05:26:05;4.37;;;1.90;;
4885;SDS011;2457;51.788;6.136;2023-02-18T05:28:32;4.70;;;2.13;;
4885;SDS011;2457;51.788;6.136;2023-02-18T05:31:00;4.60;;;2.30;;
4885;SDS011;2457;51.788;6.136;2023-02-18T05:33:27;5.70;;;2.20;;
4885;SDS011;2457;51.788;6.136;2023-02-18T05:35:54;4.20;;;1.70;;
4885;SDS011;2457;51.788;6.136;2023-02-18T05:38:21;4.93;;;1.97;;
4885;SDS011;2457;51.788;6.136;2023-02-18T05:40:49;6.60;;;1.80;;
4885;SDS011;2457;51.788;6.136;2023-02-18T05:43:16;4.50;;;1.80;;
4885;SDS011;2457;51.788;6.136;2023-02-18T05:45:43;4.50;;;1.83;;
4885;SDS011;2457;51.788;6.136;2023-02-18T05:48:11;4.50;;;1.73;;
4885;SDS011;2457;51.788;6.136;2023-02-18T05:50:38;4.50;;;1.80;;
4885;SDS011;2457;51.788;6.136;2023-02-18T05:53:06;5.10;;;1.80;;
4885;SDS011;2457;51.788;6.136;2023-02-18T05:55:33;4.00;;;1.70;;
4885;SDS011;2457;51.788;6.136;2023-02-18T05:58:04;4.97;;;1.90;;
4885;SDS011;2457;51.788;6.136;2023-02-18T06:00:32;4.30;;;1.50;;
4885;SDS011;2457;51.788;6.136;2023-02-18T06:02:59;3.60;;;1.40;;
4885;SDS011;2457;51.788;6.136;2023-02-18T06:05:26;4.27;;;1.43;;
4885;SDS011;2457;51.788;6.136;2023-02-18T06:07:53;4.13;;;1.70;;
4885;SDS011;2457;51.788;6.136;2023-02-18T06:10:21;4.03;;;1.40;;
4885;SDS011;2457;51.788;6.136;2023-02-18T06:12:48;3.93;;;1.43;;
4885;SDS011;2457;51.788;6.136;2023-02-18T06:15:15;3.60;;;1.40;;
4885;SDS011;2457;51.788;6.136;2023-02-18T06:17:42;4.60;;;1.53;;
4885;SDS011;2457;51.788;6.136;2023-02-18T06:20:10;3.80;;;1.60;;
4885;SDS011;2457;51.788;6.136;2023-02-18T06:22:38;4.33;;;1.87;;
4885;SDS011;2457;51.788;6.136;2023-02-18T06:25:05;4.07;;;1.70;;
4885;SDS011;2457;51.788;6.136;2023-02-18T06:27:32;4.60;;;2.00;;
4885;SDS011;2457;51.788;6.136;2023-02-18T06:30:00;4.20;;;1.50;;
4885;SDS011;2457;51.788;6.136;2023-02-18T06:32:27;4.63;;;2.10;;
4885;SDS011;2457;51.788;6.136;2023-02-18T06:34:54;4.23;;;2.00;;
4885;SDS011;2457;51.788;6.136;2023-02-18T06:37:21;4.10;;;1.30;;
4885;SDS011;2457;51.788;6.136;2023-02-18T06:39:49;4.20;;;1.63;;
4885;SDS011;2457;51.788;6.136;2023-02-18T06:42:16;3.90;;;1.60;;
4885;SDS011;2457;51.788;6.136;2023-02-18T06:44:43;4.67;;;1.93;;
4885;SDS011;2457;51.788;6.136;2023-02-18T06:47:10;4.00;;;1.70;;
4885;SDS011;2457;51.788;6.136;2023-02-18T06:49:38;4.77;;;1.63;;
4885;SDS011;2457;51.788;6.136;2023-02-18T06:52:05;4.47;;;1.97;;
4885;SDS011;2457;51.788;6.136;2023-02-18T06:54:32;4.30;;;2.00;;
4885;SDS011;2457;51.788;6.136;2023-02-18T06:57:00;5.70;;;2.00;;
4885;SDS011;2457;51.788;6.136;2023-02-18T06:59:27;3.97;;;1.80;;
4885;SDS011;2457;51.788;6.136;2023-02-18T07:01:54;4.50;;;1.90;;
4885;SDS011;2457;51.788;6.136;2023-02-18T07:04:22;4.13;;;1.77;;
4885;SDS011;2457;51.788;6.136;2023-02-18T07:06:49;4.60;;;2.10;;
4885;SDS011;2457;51.788;6.136;2023-02-18T07:09:16;4.70;;;2.27;;
4885;SDS011;2457;51.788;6.136;2023-02-18T07:11:43;5.47;;;2.53;;
4885;SDS011;2457;51.788;6.136;2023-02-18T07:14:11;6.00;;;2.43;;
4885;SDS011;2457;51.788;6.136;2023-02-18T07:16:38;4.67;;;2.03;;
4885;SDS011;2457;51.788;6.136;2023-02-18T07:19:05;5.20;;;2.37;;
4885;SDS011;2457;51.788;6.136;2023-02-18T07:21:32;4.83;;;2.47;;
4885;SDS011;2457;51.788;6.136;2023-02-18T07:24:00;4.90;;;2.00;;
4885;SDS011;2457;51.788;6.136;2023-02-18T07:26:27;4.30;;;2.00;;
4885;SDS011;2457;51.788;6.136;2023-02-18T07:28:54;5.60;;;1.90;;
4885;SDS011;2457;51.788;6.136;2023-02-18T07:31:21;4.97;;;2.10;;
4885;SDS011;2457;51.788;6.136;2023-02-18T07:33:49;5.37;;;2.40;;
4885;SDS011;2457;51.788;6.136;2023-02-18T07:36:16;4.67;;;2.30;;
4885;SDS011;2457;51.788;6.136;2023-02-18T07:38:43;4.57;;;1.77;;
4885;SDS011;2457;51.788;6.136;2023-02-18T07:41:16;5.50;;;2.80;;
4885;SDS011;2457;51.788;6.136;2023-02-18T07:43:39;4.40;;;2.07;;
4885;SDS011;2457;51.788;6.136;2023-02-18T07:46:06;4.87;;;2.30;;
4885;SDS011;2457;51.788;6.136;2023-02-18T07:48:34;5.70;;;2.40;;
4885;SDS011;2457;51.788;6.136;2023-02-18T07:51:06;4.80;;;2.30;;
4885;SDS011;2457;51.788;6.136;2023-02-18T07:53:30;5.07;;;2.23;;
4885;SDS011;2457;51.788;6.136;2023-02-18T07:55:58;4.80;;;2.40;;
4885;SDS011;2457;51.788;6.136;2023-02-18T07:58:27;4.47;;;2.13;;
4885;SDS011;2457;51.788;6.136;2023-02-18T08:00:54;5.70;;;2.80;;
4885;SDS011;2457;51.788;6.136;2023-02-18T08:03:22;5.80;;;2.93;;
4885;SDS011;2457;51.788;6.136;2023-02-18T08:05:50;4.83;;;2.30;;
4885;SDS011;2457;51.788;6.136;2023-02-18T08:08:23;5.87;;;2.50;;
4885;SDS011;2457;51.788;6.136;2023-02-18T08:10:47;4.83;;;2.20;;
4885;SDS011;2457;51.788;6.136;2023-02-18T08:13:14;5.37;;;2.70;;
4885;SDS011;2457;51.788;6.136;2023-02-18T08:15:41;6.43;;;3.00;;
4885;SDS011;2457;51.788;6.136;2023-02-18T08:18:19;5.07;;;2.40;;
4885;SDS011;2457;51.788;6.136;2023-02-18T08:20:37;5.87;;;2.70;;
4885;SDS011;2457;51.788;6.136;2023-02-18T08:23:05;6.30;;;2.83;;
4885;SDS011;2457;51.788;6.136;2023-02-18T08:25:32;6.13;;;2.90;;
4885;SDS011;2457;51.788;6.136;2023-02-18T08:27:59;5.40;;;2.80;;
4885;SDS011;2457;51.788;6.136;2023-02-18T08:30:26;7.17;;;2.57;;
4885;SDS011;2457;51.788;6.136;2023-02-18T08:32:54;7.00;;;2.90;;
4885;SDS011;2457;51.788;6.136;2023-02-18T08:35:21;10.30;;;3.30;;
4885;SDS011;2457;51.788;6.136;2023-02-18T08:37:48;5.57;;;2.53;;
4885;SDS011;2457;51.788;6.136;2023-02-18T08:40:16;6.63;;;2.90;;
4885;SDS011;2457;51.788;6.136;2023-02-18T08:42:43;6.60;;;2.60;;
4885;SDS011;2457;51.788;6.136;2023-02-18T08:45:10;7.00;;;2.57;;
4885;SDS011;2457;51.788;6.136;2023-02-18T08:47:37;5.63;;;2.80;;
4885;SDS011;2457;51.788;6.136;2023-02-18T08:50:05;7.33;;;2.90;;
4885;SDS011;2457;51.788;6.136;2023-02-18T08:52:32;4.80;;;2.43;;
4885;SDS011;2457;51.788;6.136;2023-02-18T08:54:59;8.30;;;2.80;;
4885;SDS011;2457;51.788;6.136;2023-02-18T08:57:27;4.43;;;1.93;;
4885;SDS011;2457;51.788;6.136;2023-02-18T08:59:54;6.83;;;2.33;;
4885;SDS011;2457;51.788;6.136;2023-02-18T09:02:21;9.87;;;3.23;;
4885;SDS011;2457;51.788;6.136;2023-02-18T09:04:49;8.33;;;2.70;;
4885;SDS011;2457;51.788;6.136;2023-02-18T09:07:17;10.10;;;2.80;;
4885;SDS011;2457;51.788;6.136;2023-02-18T09:09:44;5.87;;;2.80;;
4885;SDS011;2457;51.788;6.136;2023-02-18T09:12:11;11.90;;;3.20;;
4885;SDS011;2457;51.788;6.136;2023-02-18T09:14:39;6.27;;;3.07;;
4885;SDS011;2457;51.788;6.136;2023-02-18T09:17:06;5.63;;;2.53;;
4885;SDS011;2457;51.788;6.136;2023-02-18T09:19:33;5.30;;;2.70;;
4885;SDS011;2457;51.788;6.136;2023-02-18T09:22:00;5.80;;;2.07;;
4885;SDS011;2457;51.788;6.136;2023-02-18T09:24:28;7.70;;;2.63;;
4885;SDS011;2457;51.788;6.136;2023-02-18T09:26:55;7.33;;;2.80;;
4885;SDS011;2457;51.788;6.136;2023-02-18T09:29:22;6.00;;;2.20;;
4885;SDS011;2457;51.788;6.136;2023-02-18T09:31:50;10.33;;;3.00;;
4885;SDS011;2457;51.788;6.136;2023-02-18T09:34:17;7.63;;;2.60;;
4885;SDS011;2457;51.788;6.136;2023-02-18T09:36:44;6.90;;;2.73;;
4885;SDS011;2457;51.788;6.136;2023-02-18T09:39:11;8.60;;;2.40;;
4885;SDS011;2457;51.788;6.136;2023-02-18T09:41:41;12.17;;;2.90;;
4885;SDS011;2457;51.788;6.136;2023-02-18T09:44:21;12.37;;;3.07;;
4885;SDS011;2457;51.788;6.136;2023-02-18T09:46:50;5.93;;;2.73;;
4885;SDS011;2457;51.788;6.136;2023-02-18T09:49:19;8.57;;;2.80;;
4885;SDS011;2457;51.788;6.136;2023-02-18T09:51:46;7.30;;;2.33;;
4885;SDS011;2457;51.788;6.136;2023-02-18T09:54:16;10.73;;;3.03;;
4885;SDS011;2457;51.788;6.136;2023-02-18T09:56:42;7.83;;;2.60;;
4885;SDS011;2457;51.788;6.136;2023-02-18T09:59:12;6.67;;;2.40;;
4885;SDS011;2457;51.788;6.136;2023-02-18T10:01:39;6.60;;;2.43;;
4885;SDS011;2457;51.788;6.136;2023-02-18T10:04:15;8.47;;;3.10;;
4885;SDS011;2457;51.788;6.136;2023-02-18T10:06:42;8.07;;;2.90;;
4885;SDS011;2457;51.788;6.136;2023-02-18T10:11:50;7.10;;;2.90;;
4885;SDS011;2457;51.788;6.136;2023-02-18T10:14:12;7.33;;;2.27;;
4885;SDS011;2457;51.788;6.136;2023-02-18T10:16:39;6.30;;;2.30;;
4885;SDS011;2457;51.788;6.136;2023-02-18T10:19:20;12.87;;;3.20;;
4885;SDS011;2457;51.788;6.136;2023-02-18T10:21:48;10.33;;;2.60;;
4885;SDS011;2457;51.788;6.136;2023-02-18T10:24:22;7.77;;;2.40;;
4885;SDS011;2457;51.788;6.136;2023-02-18T10:26:47;7.33;;;2.40;;
4885;SDS011;2457;51.788;6.136;2023-02-18T10:29:17;7.07;;;2.60;;
4885;SDS011;2457;51.788;6.136;2023-02-18T10:32:27;14.57;;;3.13;;
4885;SDS011;2457;51.788;6.136;2023-02-18T10:42:23;11.73;;;2.20;;
4885;SDS011;2457;51.788;6.136;2023-02-18T10:50:12;9.03;;;2.50;;
4885;SDS011;2457;51.788;6.136;2023-02-18T10:52:44;8.83;;;2.43;;
4885;SDS011;2457;51.788;6.136;2023-02-18T10:55:13;10.97;;;2.33;;
4885;SDS011;2457;51.788;6.136;2023-02-18T10:57:45;7.63;;;2.43;;
4885;SDS011;2457;51.788;6.136;2023-02-18T11:02:42;8.97;;;2.20;;
4885;SDS011;2457;51.788;6.136;2023-02-18T11:05:22;7.73;;;2.07;;
4885;SDS011;2457;51.788;6.136;2023-02-18T11:07:45;5.47;;;1.70;;
4885;SDS011;2457;51.788;6.136;2023-02-18T11:10:17;6.20;;;2.17;;
4885;SDS011;2457;51.788;6.136;2023-02-18T11:17:45;6.80;;;1.90;;
4885;SDS011;2457;51.788;6.136;2023-02-18T11:20:21;7.00;;;2.30;;
4885;SDS011;2457;51.788;6.136;2023-02-18T11:22:46;8.47;;;2.50;;
4885;SDS011;2457;51.788;6.136;2023-02-18T11:25:22;6.53;;;1.90;;
4885;SDS011;2457;51.788;6.136;2023-02-18T11:27:55;9.10;;;2.03;;
4885;SDS011;2457;51.788;6.136;2023-02-18T11:30:34;7.30;;;2.10;;
4885;SDS011;2457;51.788;6.136;2023-02-18T11:33:13;5.70;;;2.03;;
4885;SDS011;2457;51.788;6.136;2023-02-18T11:35:35;7.67;;;2.17;;
4885;SDS011;2457;51.788;6.136;2023-02-18T11:38:12;9.83;;;2.10;;
4885;SDS011;2457;51.788;6.136;2023-02-18T11:40:33;5.80;;;1.67;;
4885;SDS011;2457;51.788;6.136;2023-02-18T11:43:05;6.57;;;2.50;;
4885;SDS011;2457;51.788;6.136;2023-02-18T11:45:33;6.97;;;1.70;;
4885;SDS011;2457;51.788;6.136;2023-02-18T11:48:08;9.00;;;2.10;;
4885;SDS011;2457;51.788;6.136;2023-02-18T11:50:35;8.57;;;2.20;;
4885;SDS011;2457;51.788;6.136;2023-02-18T11:53:18;6.97;;;1.90;;
4885;SDS011;2457;51.788;6.136;2023-02-18T11:55:33;5.80;;;1.80;;
4885;SDS011;2457;51.788;6.136;2023-02-18T11:58:01;5.00;;;1.87;;
4885;SDS011;2457;51.788;6.136;2023-02-18T12:00:38;8.57;;;2.10;;
4885;SDS011;2457;51.788;6.136;2023-02-18T12:05:40;7.50;;;2.27;;
4885;SDS011;2457;51.788;6.136;2023-02-18T12:10:38;9.77;;;2.23;;
4885;SDS011;2457;51.788;6.136;2023-02-18T12:13:30;6.80;;;2.20;;
4885;SDS011;2457;51.788;6.136;2023-02-18T12:15:51;7.57;;;2.03;;
4885;SDS011;2457;51.788;6.136;2023-02-18T12:18:21;8.27;;;2.00;;
4885;SDS011;2457;51.788;6.136;2023-02-18T12:20:48;7.00;;;1.90;;
4885;SDS011;2457;51.788;6.136;2023-02-18T12:26:01;8.93;;;1.90;;
4885;SDS011;2457;51.788;6.136;2023-02-18T12:31:20;7.10;;;1.97;;
4885;SDS011;2457;51.788;6.136;2023-02-18T12:33:59;8.73;;;2.00;;
4885;SDS011;2457;51.788;6.136;2023-02-18T12:36:40;6.40;;;2.17;;
4885;SDS011;2457;51.788;6.136;2023-02-18T12:39:09;6.13;;;1.90;;
4885;SDS011;2457;51.788;6.136;2023-02-18T12:47:18;6.27;;;1.83;;
4885;SDS011;2457;51.788;6.136;2023-02-18T12:50:02;4.30;;;1.50;;
4885;SDS011;2457;51.788;6.136;2023-02-18T12:52:43;5.10;;;2.03;;
4885;SDS011;2457;51.788;6.136;2023-02-18T12:55:18;8.60;;;2.37;;
4885;SDS011;2457;51.788;6.136;2023-02-18T12:57:47;8.97;;;1.80;;
4885;SDS011;2457;51.788;6.136;2023-02-18T13:00:16;7.30;;;1.97;;
4885;SDS011;2457;51.788;6.136;2023-02-18T13:02:53;7.57;;;2.13;;
4885;SDS011;2457;51.788;6.136;2023-02-18T13:08:00;6.37;;;1.80;;
4885;SDS011;2457;51.788;6.136;2023-02-18T13:10:47;7.57;;;1.70;;
4885;SDS011;2457;51.788;6.136;2023-02-18T13:15:49;8.73;;;1.67;;
4885;SDS011;2457;51.788;6.136;2023-02-18T13:18:22;9.33;;;1.83;;
4885;SDS011;2457;51.788;6.136;2023-02-18T13:20:50;6.67;;;1.90;;
4885;SDS011;2457;51.788;6.136;2023-02-18T13:23:15;7.10;;;1.87;;
4885;SDS011;2457;51.788;6.136;2023-02-18T13:25:43;4.87;;;1.30;;
4885;SDS011;2457;51.788;6.136;2023-02-18T13:28:25;6.83;;;1.80;;
4885;SDS011;2457;51.788;6.136;2023-02-18T13:30:54;6.37;;;1.73;;
4885;SDS011;2457;51.788;6.136;2023-02-18T13:35:54;8.60;;;1.90;;
4885;SDS011;2457;51.788;6.136;2023-02-18T13:41:05;5.00;;;1.70;;
4885;SDS011;2457;51.788;6.136;2023-02-18T13:43:33;10.60;;;1.93;;
4885;SDS011;2457;51.788;6.136;2023-02-18T13:46:08;6.43;;;1.70;;
4885;SDS011;2457;51.788;6.136;2023-02-18T13:48:42;8.07;;;2.17;;
4885;SDS011;2457;51.788;6.136;2023-02-18T13:51:11;6.33;;;1.50;;
4885;SDS011;2457;51.788;6.136;2023-02-18T13:53:40;8.30;;;2.20;;
4885;SDS011;2457;51.788;6.136;2023-02-18T13:56:30;7.90;;;1.67;;
4885;SDS011;2457;51.788;6.136;2023-02-18T13:58:41;7.20;;;1.70;;
4885;SDS011;2457;51.788;6.136;2023-02-18T14:06:13;6.37;;;1.70;;
4885;SDS011;2457;51.788;6.136;2023-02-18T14:08:40;8.80;;;2.10;;
4885;SDS011;2457;51.788;6.136;2023-02-18T14:13:40;9.97;;;1.80;;
4885;SDS011;2457;51.788;6.136;2023-02-18T14:16:08;13.90;;;2.10;;
4885;SDS011;2457;51.788;6.136;2023-02-18T14:23:48;7.30;;;2.60;;
4885;SDS011;2457;51.788;6.136;2023-02-18T14:33:51;7.97;;;2.73;;
4885;SDS011;2457;51.788;6.136;2023-02-18T14:39:04;10.80;;;2.27;;
4885;SDS011;2457;51.788;6.136;2023-02-18T14:44:22;7.73;;;2.07;;
4885;SDS011;2457;51.788;6.136;2023-02-18T14:51:51;7.27;;;2.00;;
4885;SDS011;2457;51.788;6.136;2023-02-18T14:54:19;5.47;;;1.90;;
4885;SDS011;2457;51.788;6.136;2023-02-18T14:56:51;6.70;;;2.27;;
4885;SDS011;2457;51.788;6.136;2023-02-18T14:59:19;5.90;;;2.10;;
4885;SDS011;2457;51.788;6.136;2023-02-18T15:01:46;6.90;;;1.47;;
4885;SDS011;2457;51.788;6.136;2023-02-18T15:04:14;9.10;;;1.87;;
4885;SDS011;2457;51.788;6.136;2023-02-18T15:06:41;6.73;;;2.13;;
4885;SDS011;2457;51.788;6.136;2023-02-18T15:09:13;8.63;;;2.20;;
4885;SDS011;2457;51.788;6.136;2023-02-18T15:11:48;5.60;;;1.90;;
4885;SDS011;2457;51.788;6.136;2023-02-18T15:14:17;6.27;;;2.23;;
4885;SDS011;2457;51.788;6.136;2023-02-18T15:16:44;8.90;;;2.37;;
4885;SDS011;2457;51.788;6.136;2023-02-18T15:19:13;8.60;;;1.97;;
4885;SDS011;2457;51.788;6.136;2023-02-18T15:21:43;7.03;;;2.00;;
4885;SDS011;2457;51.788;6.136;2023-02-18T15:27:01;6.30;;;1.73;;
4885;SDS011;2457;51.788;6.136;2023-02-18T15:29:30;6.43;;;2.10;;
4885;SDS011;2457;51.788;6.136;2023-02-18T15:31:57;7.37;;;1.90;;
4885;SDS011;2457;51.788;6.136;2023-02-18T15:37:00;6.50;;;1.97;;
4885;SDS011;2457;51.788;6.136;2023-02-18T15:39:28;9.97;;;2.50;;
4885;SDS011;2457;51.788;6.136;2023-02-18T15:42:02;8.47;;;2.40;;
4885;SDS011;2457;51.788;6.136;2023-02-18T15:44:28;10.03;;;2.40;;
4885;SDS011;2457;51.788;6.136;2023-02-18T15:47:01;5.40;;;1.90;;
4885;SDS011;2457;51.788;6.136;2023-02-18T15:49:25;7.30;;;2.10;;
4885;SDS011;2457;51.788;6.136;2023-02-18T15:51:54;8.27;;;1.83;;
4885;SDS011;2457;51.788;6.136;2023-02-18T15:54:21;5.10;;;1.50;;
4885;SDS011;2457;51.788;6.136;2023-02-18T15:56:50;4.27;;;1.60;;
4885;SDS011;2457;51.788;6.136;2023-02-18T15:59:18;6.97;;;1.90;;
4885;SDS011;2457;51.788;6.136;2023-02-18T16:01:50;7.00;;;1.63;;
4885;SDS011;2457;51.788;6.136;2023-02-18T16:04:18;6.60;;;1.67;;
4885;SDS011;2457;51.788;6.136;2023-02-18T16:06:48;6.70;;;1.83;;
4885;SDS011;2457;51.788;6.136;2023-02-18T16:09:33;8.13;;;2.27;;
4885;SDS011;2457;51.788;6.136;2023-02-18T16:12:02;7.80;;;2.50;;
4885;SDS011;2457;51.788;6.136;2023-02-18T16:14:31;6.40;;;1.90;;
4885;SDS011;2457;51.788;6.136;2023-02-18T16:22:32;10.83;;;1.73;;
4885;SDS011;2457;51.788;6.136;2023-02-18T16:25:01;8.67;;;1.90;;
4885;SDS011;2457;51.788;6.136;2023-02-18T16:27:32;4.70;;;1.60;;
4885;SDS011;2457;51.788;6.136;2023-02-18T16:30:01;6.07;;;1.60;;
4885;SDS011;2457;51.788;6.136;2023-02-18T16:32:28;5.30;;;1.37;;
4885;SDS011;2457;51.788;6.136;2023-02-18T16:34:56;7.43;;;1.70;;
4885;SDS011;2457;51.788;6.136;2023-02-18T16:37:23;12.10;;;2.13;;
4885;SDS011;2457;51.788;6.136;2023-02-18T16:40:12;8.57;;;2.10;;
4885;SDS011;2457;51.788;6.136;2023-02-18T16:42:34;10.77;;;1.63;;
4885;SDS011;2457;51.788;6.136;2023-02-18T16:45:01;8.00;;;1.80;;
4885;SDS011;2457;51.788;6.136;2023-02-18T16:47:30;6.40;;;1.97;;
4885;SDS011;2457;51.788;6.136;2023-02-18T16:49:57;7.57;;;2.00;;
4885;SDS011;2457;51.788;6.136;2023-02-18T16:52:25;5.97;;;1.70;;
4885;SDS011;2457;51.788;6.136;2023-02-18T16:54:52;6.53;;;2.10;;
4885;SDS011;2457;51.788;6.136;2023-02-18T16:57:20;9.73;;;2.00;;
4885;SDS011;2457;51.788;6.136;2023-02-18T16:59:47;8.00;;;1.80;;
4885;SDS011;2457;51.788;6.136;2023-02-18T17:02:17;6.20;;;1.70;;
4885;SDS011;2457;51.788;6.136;2023-02-18T17:04:44;5.33;;;2.50;;
4885;SDS011;2457;51.788;6.136;2023-02-18T17:07:11;4.33;;;1.83;;
4885;SDS011;2457;51.788;6.136;2023-02-18T17:09:38;9.07;;;2.00;;
4885;SDS011;2457;51.788;6.136;2023-02-18T17:12:06;5.77;;;1.87;;
4885;SDS011;2457;51.788;6.136;2023-02-18T17:14:33;8.13;;;2.10;;
4885;SDS011;2457;51.788;6.136;2023-02-18T17:17:00;16.47;;;2.30;;
4885;SDS011;2457;51.788;6.136;2023-02-18T17:19:27;7.13;;;2.27;;
4885;SDS011;2457;51.788;6.136;2023-02-18T17:21:55;8.20;;;2.30;;
4885;SDS011;2457;51.788;6.136;2023-02-18T17:24:22;7.73;;;2.23;;
4885;SDS011;2457;51.788;6.136;2023-02-18T17:26:49;13.03;;;2.07;;